Time;durP1;ratioP1;P1;durP2;ratioP2;P2;SDS_P1;SDS_P2;PMS_P1;PMS_P2;Temp;Humidity;BMP_temperature;BMP_pressure;BME280_temperature;BME280_humidity;BME280_pressure;Samples;Min_cycle;Max_cycle;Signal;HPM_P1;HPM_P2
2023/10/29 00:00:00;;;;;;;10.90;8.80;;;;;;;9.06;99.32;98886.49;219444;1259;141298;-70
2023/10/29 00:05:06;;;;;;;11.80;8.90;;;;;;;8.97;99.24;98872.33;218000;1257;139868;-71
2023/10/29 00:10:10;;;;;;;10.60;8.10;;;;;;;8.90;99.08;98867.17;218088;1258;139901;-71
2023/10/29 00:15:15;;;;;;;12.80;8.50;;;;;;;8.82;99.00;98867.19;217757;1258;140137;-71
2023/10/29 00:20:21;;;;;;;14.70;11.00;;;;;;;8.75;99.08;98867.46;218292;1258;140426;-70
2023/10/29 00:25:25;;;;;;;11.00;8.30;;;;;;;8.71;99.01;98877.13;218573;1257;141067;-69
2023/10/29 00:30:29;;;;;;;10.60;8.70;;;;;;;8.67;98.95;98883.64;218215;1259;141231;-71
2023/10/29 00:35:34;;;;;;;14.40;9.60;;;;;;;8.61;99.03;98887.52;218549;1259;140383;-70
2023/10/29 00:40:39;;;;;;;10.50;7.50;;;;;;;8.55;99.05;98885.60;218158;1259;140634;-70
2023/10/29 00:45:51;;;;;;;11.40;7.60;;;;;;;8.51;99.35;98887.55;217842;1260;140174;-70
2023/10/29 00:50:56;;;;;;;7.30;6.60;;;;;;;8.50;99.61;98885.36;217319;1257;140357;-68
2023/10/29 00:56:02;;;;;;;10.50;7.30;;;;;;;8.53;99.97;98886.57;217766;1258;140235;-70
2023/10/29 01:01:06;;;;;;;9.60;7.90;;;;;;;8.55;100.00;98888.15;217649;1257;140278;-71
2023/10/29 01:06:11;;;;;;;12.90;7.70;;;;;;;8.58;100.00;98889.76;218477;1258;141067;-71
2023/10/29 01:11:15;;;;;;;9.80;7.60;;;;;;;8.61;100.00;98892.74;217745;1259;141315;-70
2023/10/29 01:16:19;;;;;;;15.70;7.90;;;;;;;8.66;100.00;98890.91;218817;1259;141760;-70
2023/10/29 01:21:26;;;;;;;6.60;5.90;;;;;;;8.68;100.00;98892.29;219169;1259;141353;-70
2023/10/29 01:26:31;;;;;;;;;;;;;;;8.70;100.00;98888.58;218313;1259;140453;-70
2023/10/29 01:31:36;;;;;;;7.40;5.70;;;;;;;8.67;100.00;98898.58;220359;1259;127675;-69
2023/10/29 01:36:41;;;;;;;10.10;6.10;;;;;;;8.69;100.00;98899.30;219150;1259;140201;-69
2023/10/29 01:41:46;;;;;;;12.70;9.50;;;;;;;8.73;100.00;98898.88;218146;1259;140403;-69
2023/10/29 01:46:51;;;;;;;9.50;7.20;;;;;;;8.76;100.00;98899.95;218523;1259;142533;-69
2023/10/29 01:51:55;;;;;;;13.30;7.40;;;;;;;8.76;100.00;98899.36;218307;1259;234595;-68
2023/10/29 01:57:00;;;;;;;10.20;6.80;;;;;;;8.76;100.00;98902.02;217206;1259;221796;-69
2023/10/29 02:02:05;;;;;;;12.50;8.40;;;;;;;8.74;100.00;98902.25;218254;1261;140183;-73
2023/10/29 02:07:09;;;;;;;11.70;6.80;;;;;;;8.66;100.00;98903.61;218392;1258;140458;-70
2023/10/29 02:12:14;;;;;;;11.00;7.80;;;;;;;8.64;99.98;98893.90;218205;1259;141679;-68
2023/10/29 02:17:23;;;;;;;8.70;7.80;;;;;;;8.62;100.00;98894.30;217451;1260;442765;-68
2023/10/29 02:22:29;;;;;;;8.00;6.20;;;;;;;8.61;100.00;98902.77;217478;1257;139975;-68
2023/10/29 02:27:34;;;;;;;11.10;6.30;;;;;;;8.57;100.00;98905.00;217664;1257;140204;-68
2023/10/29 02:32:39;;;;;;;8.60;6.10;;;;;;;8.54;99.95;98908.96;217387;1259;140203;-67
2023/10/29 02:37:44;;;;;;;9.50;6.50;;;;;;;8.53;100.00;98903.67;218674;1259;142003;-69
2023/10/29 02:42:48;;;;;;;9.20;6.50;;;;;;;8.51;100.00;98904.34;217539;1257;142140;-67
2023/10/29 02:47:53;;;;;;;15.60;7.60;;;;;;;8.50;100.00;98901.67;218176;1258;140591;-69
2023/10/29 02:52:57;;;;;;;21.40;8.40;;;;;;;8.51;100.00;98908.11;218549;1259;140558;-69
2023/10/29 02:58:02;;;;;;;6.90;6.10;;;;;;;8.50;100.00;98908.48;218960;1258;141857;-69
2023/10/29 03:03:08;;;;;;;9.00;5.60;;;;;;;8.52;100.00;98905.05;218432;1257;140922;-70
2023/10/29 03:08:13;;;;;;;9.70;7.20;;;;;;;8.56;100.00;98901.70;218526;1260;141604;-70
2023/10/29 03:13:18;;;;;;;6.90;5.80;;;;;;;8.60;100.00;98902.98;218229;1259;140290;-71
2023/10/29 03:18:23;;;;;;;10.80;6.50;;;;;;;8.63;100.00;98906.52;219425;1257;140532;-71
2023/10/29 03:23:28;;;;;;;9.20;5.10;;;;;;;8.62;100.00;98909.44;220260;1257;140949;-69
2023/10/29 03:28:35;;;;;;;9.50;6.50;;;;;;;8.65;100.00;98901.41;219280;1260;141080;-71
2023/10/29 03:33:41;;;;;;;10.50;6.30;;;;;;;8.67;100.00;98893.73;217913;1260;141314;-69
2023/10/29 03:38:46;;;;;;;14.30;5.50;;;;;;;8.69;100.00;98891.50;219545;1258;141196;-70
2023/10/29 03:43:51;;;;;;;6.40;5.10;;;;;;;8.70;100.00;98898.67;218133;1258;141357;-68
2023/10/29 03:48:56;;;;;;;9.30;5.20;;;;;;;8.69;100.00;98894.36;218231;1258;140356;-74
2023/10/29 03:54:00;;;;;;;9.20;6.40;;;;;;;8.66;100.00;98892.02;218703;1258;140726;-75
2023/10/29 03:59:06;;;;;;;8.60;6.30;;;;;;;8.61;99.97;98901.30;217583;1260;140848;-71
2023/10/29 04:04:10;;;;;;;7.30;5.90;;;;;;;8.54;100.00;98899.77;217739;1257;140303;-74
2023/10/29 04:09:15;;;;;;;9.50;7.10;;;;;;;8.48;100.00;98909.23;218358;1259;141832;-69
2023/10/29 04:14:20;;;;;;;7.80;5.80;;;;;;;8.46;100.00;98920.02;217309;1258;140470;-69
2023/10/29 04:19:23;;;;;;;11.00;6.20;;;;;;;8.49;100.00;98919.77;218187;1259;139980;-69
2023/10/29 04:24:28;;;;;;;7.30;4.60;;;;;;;8.53;100.00;98912.55;217292;1258;140068;-68
2023/10/29 04:29:33;;;;;;;9.70;4.90;;;;;;;8.57;100.00;98914.99;217882;1260;140434;-69
2023/10/29 04:34:38;;;;;;;5.70;5.10;;;;;;;8.59;100.00;98917.68;217168;1259;141251;-69
2023/10/29 04:39:45;;;;;;;14.80;5.20;;;;;;;8.60;100.00;98926.83;218010;1260;141141;-70
2023/10/29 04:44:52;;;;;;;7.60;4.50;;;;;;;8.61;100.00;98921.60;217848;1259;140391;-70
2023/10/29 04:49:56;;;;;;;4.90;4.40;;;;;;;8.63;100.00;98914.92;217199;1259;140467;-69
2023/10/29 04:55:01;;;;;;;5.50;4.90;;;;;;;8.64;100.00;98910.11;217818;1262;142207;-68
2023/10/29 05:00:07;;;;;;;8.00;5.50;;;;;;;8.60;100.00;98908.39;217558;1259;140326;-71
2023/10/29 05:05:11;;;;;;;9.30;4.90;;;;;;;8.56;100.00;98915.41;219884;1258;140473;-69
2023/10/29 05:10:15;;;;;;;8.20;6.30;;;;;;;8.51;99.99;98917.45;219288;1257;222142;-69
2023/10/29 05:15:18;;;;;;;7.10;5.40;;;;;;;8.46;99.97;98923.75;220323;1257;140581;-69
2023/10/29 05:20:23;;;;;;;6.00;5.30;;;;;;;8.42;99.93;98932.83;220094;1258;140433;-69
2023/10/29 05:25:27;;;;;;;9.50;4.30;;;;;;;8.38;99.58;98932.22;218877;1258;140166;-68
2023/10/29 05:30:31;;;;;;;8.20;5.40;;;;;;;8.34;99.50;98933.89;217986;1260;151515;-68
2023/10/29 05:35:35;;;;;;;7.10;4.90;;;;;;;8.28;99.54;98940.94;218758;1258;141422;-68
2023/10/29 05:40:39;;;;;;;10.20;4.70;;;;;;;8.24;99.56;98952.08;217803;1257;140339;-68
2023/10/29 05:45:45;;;;;;;8.40;5.00;;;;;;;8.18;99.65;98953.61;218379;1260;140492;-68
2023/10/29 05:50:49;;;;;;;12.30;6.70;;;;;;;8.13;99.30;98952.19;218043;1262;139839;-69
2023/10/29 05:55:54;;;;;;;15.60;7.00;;;;;;;8.06;99.42;98951.84;218305;1260;140497;-68
2023/10/29 06:01:02;;;;;;;11.70;7.00;;;;;;;8.04;99.69;98951.43;218340;1259;140416;-67
2023/10/29 06:06:07;;;;;;;15.30;7.50;;;;;;;8.06;99.70;98955.29;217379;1259;139528;-69
2023/10/29 06:11:12;;;;;;;15.10;9.00;;;;;;;8.11;99.94;98952.00;217293;1259;140161;-67
2023/10/29 06:16:17;;;;;;;14.80;7.00;;;;;;;8.17;99.98;98946.80;217240;1262;141100;-67
2023/10/29 06:21:23;;;;;;;10.20;5.70;;;;;;;8.29;100.00;98951.46;217191;1259;139968;-67
2023/10/29 06:26:28;;;;;;;13.20;8.00;;;;;;;8.43;100.00;98945.21;217422;1262;141060;-67
2023/10/29 06:31:33;;;;;;;9.50;6.30;;;;;;;8.62;100.00;98944.67;217624;1260;140770;-69
2023/10/29 06:36:39;;;;;;;9.60;6.20;;;;;;;8.97;100.00;98937.77;217721;1259;140172;-68
2023/10/29 06:41:44;;;;;;;13.50;6.50;;;;;;;9.30;100.00;98935.10;218347;1262;139992;-67
2023/10/29 06:46:48;;;;;;;7.00;5.10;;;;;;;9.82;100.00;98947.94;218556;1260;140730;-67
2023/10/29 06:51:53;;;;;;;7.90;6.40;;;;;;;10.04;99.97;98947.71;218278;1260;140481;-67
2023/10/29 06:56:58;;;;;;;15.00;5.30;;;;;;;10.13;99.67;98938.68;217741;1260;140763;-67
2023/10/29 07:02:06;;;;;;;8.20;6.50;;;;;;;10.53;100.00;98950.61;217750;1261;140572;-67
2023/10/29 07:07:11;;;;;;;10.10;5.70;;;;;;;10.97;100.00;98951.42;218425;1260;140939;-67
2023/10/29 07:12:16;;;;;;;7.50;5.40;;;;;;;11.42;99.76;98955.55;220157;1257;140136;-68
2023/10/29 07:17:20;;;;;;;7.30;5.50;;;;;;;11.55;98.19;98953.33;220051;1257;141143;-68
2023/10/29 07:22:25;;;;;;;7.00;6.30;;;;;;;11.50;97.25;98953.14;219737;1260;140152;-67
2023/10/29 07:27:30;;;;;;;8.60;6.20;;;;;;;11.45;96.85;98943.02;220061;1259;140669;-68
2023/10/29 07:32:35;;;;;;;7.10;5.00;;;;;;;11.33;96.12;98936.66;219791;1259;140802;-70
2023/10/29 07:37:40;;;;;;;8.00;4.50;;;;;;;11.20;95.87;98933.81;218618;1261;141394;-68
2023/10/29 07:42:49;;;;;;;7.90;5.30;;;;;;;11.17;95.97;98928.09;219154;1258;140415;-68
2023/10/29 07:47:53;;;;;;;7.20;5.00;;;;;;;11.12;96.01;98926.25;218193;1258;142633;-67
2023/10/29 07:52:57;;;;;;;8.10;4.90;;;;;;;11.10;95.64;98932.85;217966;1257;140852;-67
2023/10/29 07:58:01;;;;;;;7.30;4.80;;;;;;;11.11;95.81;98927.20;217166;1260;140724;-68
2023/10/29 08:08:23;;;;;;;5.40;4.90;;;;;;;11.29;96.24;98921.33;214187;1298;655874;-67
2023/10/29 08:13:30;;;;;;;6.80;4.50;;;;;;;11.30;95.87;98921.06;216172;1269;140317;-67
2023/10/29 08:18:38;;;;;;;4.90;4.20;;;;;;;11.34;96.38;98925.61;214763;1269;1834051;-67
2023/10/29 08:23:46;;;;;;;6.40;4.30;;;;;;;11.41;95.95;98923.73;216897;1270;139685;-67
2023/10/29 08:28:52;;;;;;;7.10;4.70;;;;;;;11.44;95.97;98938.48;216482;1269;139196;-68
2023/10/29 08:33:57;;;;;;;4.00;3.40;;;;;;;11.60;96.53;98942.29;217482;1264;139318;-68
2023/10/29 08:39:06;;;;;;;5.00;4.50;;;;;;;11.80;96.33;98934.59;217550;1265;138922;-67
2023/10/29 08:44:12;;;;;;;7.80;5.30;;;;;;;12.06;96.70;98940.23;217799;1261;138918;-69
2023/10/29 08:49:20;;;;;;;4.70;3.70;;;;;;;12.22;96.47;98944.44;218323;1263;140182;-71
2023/10/29 08:54:35;;;;;;;;;;;;;;;12.45;96.11;98944.73;217828;1257;139969;-70
2023/10/29 08:59:42;;;;;;;;;;;;;;;12.41;95.51;98948.96;220457;1255;127156;-70
2023/10/29 09:04:56;;;;;;;5.30;4.40;;;;;;;12.65;96.32;98943.52;220652;1257;126044;-70
2023/10/29 09:10:05;;;;;;;13.30;4.30;;;;;;;13.06;96.43;98933.75;219872;1256;139320;-69
2023/10/29 09:15:11;;;;;;;4.50;3.70;;;;;;;13.42;95.80;98918.97;219444;1257;139951;-69
2023/10/29 09:20:16;;;;;;;7.60;4.00;;;;;;;13.72;95.05;98914.19;218850;1259;140248;-69
2023/10/29 09:25:21;;;;;;;3.50;3.30;;;;;;;13.93;94.11;98921.27;218348;1256;139214;-69
2023/10/29 09:30:25;;;;;;;5.90;4.00;;;;;;;14.16;93.94;98923.54;218795;1258;139668;-70
2023/10/29 09:35:30;;;;;;;3.40;2.30;;;;;;;14.32;93.01;98927.58;217813;1259;138974;-69
2023/10/29 09:40:36;;;;;;;5.10;2.50;;;;;;;14.54;92.59;98927.33;218801;1257;229741;-69
2023/10/29 09:45:45;;;;;;;3.10;2.80;;;;;;;14.70;91.75;98923.45;218066;1260;141199;-71
2023/10/29 09:51:05;;;;;;;;;;;;;;;;;;;;;
2023/10/29 09:56:12;;;;;;;3.60;2.60;;;;;;;14.64;90.25;98912.84;218334;1259;139248;-70
2023/10/29 10:01:17;;;;;;;4.50;3.00;;;;;;;14.75;90.31;98908.60;217943;1256;140944;-69
2023/10/29 10:06:22;;;;;;;5.50;3.00;;;;;;;14.97;90.42;98903.40;218352;1260;139410;-68
2023/10/29 10:11:28;;;;;;;4.00;3.00;;;;;;;15.21;89.93;98904.56;217997;1259;139276;-69
2023/10/29 10:16:33;;;;;;;3.60;2.50;;;;;;;15.52;89.68;98903.73;217447;1259;139471;-69
2023/10/29 10:21:46;;;;;;;4.70;3.10;;;;;;;15.74;88.82;98896.38;218008;1257;139019;-68
2023/10/29 10:26:59;;;;;;;;;;;;;;;16.04;88.97;98892.89;218943;1256;140937;-69
2023/10/29 10:32:06;;;;;;;3.40;2.00;;;;;;;16.29;88.52;98891.67;218014;1260;125535;-70
2023/10/29 10:37:11;;;;;;;2.70;2.10;;;;;;;16.57;87.59;98878.70;219294;1259;139817;-73
2023/10/29 10:42:24;;;;;;;4.50;2.00;;;;;;;16.80;86.93;98864.87;217976;1257;140639;-70
2023/10/29 10:47:30;;;;;;;5.00;2.10;;;;;;;16.96;85.81;98864.86;217695;1261;139316;-71
2023/10/29 10:52:34;;;;;;;1.80;1.70;;;;;;;17.04;84.97;98863.30;217737;1261;139718;-72
2023/10/29 10:57:40;;;;;;;3.80;2.20;;;;;;;17.15;83.92;98860.65;218048;1260;142297;-71
2023/10/29 11:02:46;;;;;;;3.90;2.90;;;;;;;17.16;83.31;98863.98;217695;1260;139540;-71
2023/10/29 11:07:52;;;;;;;1.80;1.60;;;;;;;17.18;82.83;98862.27;218195;1260;140358;-71
2023/10/29 11:13:17;;;;;;;1.70;1.60;;;;;;;17.20;81.88;98858.77;218773;1256;140104;-71
2023/10/29 11:18:29;;;;;;;3.10;1.70;;;;;;;17.21;81.38;98855.05;220581;1258;140571;-71
2023/10/29 11:23:34;;;;;;;2.00;1.80;;;;;;;17.28;80.90;98849.31;217883;1256;139398;-71
2023/10/29 11:28:44;;;;;;;5.40;2.30;;;;;;;17.33;80.25;98846.27;218463;1258;139011;-71
2023/10/29 11:34:08;;;;;;;3.10;2.10;;;;;;;17.46;80.61;98834.82;218391;1256;161672;-70
2023/10/29 11:39:16;;;;;;;10.70;1.90;;;;;;;17.55;79.51;98820.23;218454;1260;139507;-71
2023/10/29 11:44:32;;;;;;;2.30;1.70;;;;;;;17.58;78.98;98811.14;218726;1258;139589;-71
2023/10/29 11:49:48;;;;;;;8.00;1.80;;;;;;;17.62;78.61;98809.05;218490;1257;139426;-71
2023/10/29 11:55:10;;;;;;;6.10;1.60;;;;;;;17.57;78.22;98802.52;218056;1260;139311;-73
2023/10/29 12:00:17;;;;;;;2.90;1.90;;;;;;;17.56;78.14;98800.28;217986;1257;140469;-72
2023/10/29 12:05:27;;;;;;;2.60;1.90;;;;;;;17.66;77.89;98804.17;218491;1260;139952;-68
2023/10/29 12:10:47;;;;;;;4.90;1.40;;;;;;;17.74;77.25;98805.95;218109;1260;139725;-70
2023/10/29 12:15:57;;;;;;;2.20;1.80;;;;;;;17.49;76.21;98809.96;218184;1260;139902;-70
2023/10/29 12:21:04;;;;;;;5.00;1.50;;;;;;;17.44;76.50;98806.31;219460;1259;139946;-70
2023/10/29 12:26:14;;;;;;;2.00;1.80;;;;;;;17.64;76.03;98798.55;217336;1263;140123;-71
2023/10/29 12:31:25;;;;;;;1.10;0.90;;;;;;;17.72;75.94;98794.90;218413;1260;141077;-72
2023/10/29 12:36:30;;;;;;;3.50;1.90;;;;;;;17.71;75.65;98783.77;218560;1260;140328;-71
2023/10/29 12:41:35;;;;;;;2.90;1.90;;;;;;;17.69;75.52;98780.13;218168;1258;141213;-71
2023/10/29 12:46:49;;;;;;;3.10;1.80;;;;;;;17.43;74.86;98775.02;220288;1257;140101;-71
2023/10/29 12:51:54;;;;;;;3.90;1.70;;;;;;;17.33;75.24;98775.24;220049;1257;139356;-71
2023/10/29 12:57:02;;;;;;;2.60;1.50;;;;;;;17.36;75.14;98766.52;220125;1257;140024;-70
2023/10/29 13:02:06;;;;;;;2.30;1.60;;;;;;;17.22;74.82;98743.59;220058;1260;140405;-72
2023/10/29 13:11:33;;;;;;;2.00;1.10;;;;;;;17.31;75.20;98748.13;213673;1297;657508;-71
2023/10/29 13:16:37;;;;;;;20.10;1.90;;;;;;;17.33;74.89;98752.08;218250;1268;139416;-74
2023/10/29 13:21:41;;;;;;;2.30;1.80;;;;;;;17.19;74.74;98759.38;217838;1268;269180;-70
2023/10/29 13:26:46;;;;;;;1.40;1.30;;;;;;;17.02;74.60;98760.16;217794;1266;140148;-71
2023/10/29 13:31:51;;;;;;;1.40;1.30;;;;;;;16.95;74.79;98754.81;216546;1266;139176;-70
2023/10/29 13:36:55;;;;;;;3.50;2.20;;;;;;;17.08;75.15;98754.80;216493;1268;140386;-69
2023/10/29 13:42:04;;;;;;;3.70;2.10;;;;;;;17.21;74.72;98743.33;217253;1267;140169;-72
2023/10/29 13:47:10;;;;;;;1.80;1.60;;;;;;;17.20;74.34;98741.46;216327;1266;140347;-72
2023/10/29 13:52:16;;;;;;;;;;;;;;;16.94;74.35;98739.00;216533;1265;140282;-71
2023/10/29 13:57:24;;;;;;;3.00;1.80;;;;;;;16.68;74.61;98737.70;217273;1267;126551;-70
2023/10/29 14:02:29;;;;;;;1.80;1.50;;;;;;;16.56;74.72;98733.74;216521;1269;139607;-69
2023/10/29 14:07:36;;;;;;;7.10;2.10;;;;;;;16.56;75.04;98733.09;217009;1267;141136;-69
2023/10/29 14:12:45;;;;;;;1.60;1.40;;;;;;;16.42;74.88;98712.39;217419;1260;140366;-69
2023/10/29 14:17:53;;;;;;;2.10;1.40;;;;;;;16.31;75.26;98730.01;217330;1262;139178;-68
2023/10/29 14:22:58;;;;;;;2.40;1.60;;;;;;;16.23;75.40;98727.94;217764;1260;139615;-69
2023/10/29 14:28:09;;;;;;;6.90;2.40;;;;;;;16.16;75.31;98725.66;217405;1264;139042;-69
2023/10/29 14:33:17;;;;;;;4.00;1.90;;;;;;;16.06;75.33;98725.45;217383;1260;139057;-70
2023/10/29 14:38:27;;;;;;;2.60;1.40;;;;;;;15.92;75.10;98744.23;217388;1259;140113;-71
2023/10/29 14:43:35;;;;;;;1.70;1.10;;;;;;;15.77;75.01;98745.86;218275;1259;139063;-70
2023/10/29 14:48:45;;;;;;;2.60;1.80;;;;;;;15.64;75.09;98741.27;217769;1259;139147;-72
2023/10/29 14:53:54;;;;;;;2.20;1.80;;;;;;;15.54;75.14;98741.58;217371;1260;140088;-69
2023/10/29 14:59:00;;;;;;;3.60;2.20;;;;;;;15.43;75.32;98739.67;217055;1262;139599;-67
2023/10/29 15:04:06;;;;;;;3.30;1.60;;;;;;;15.29;75.55;98743.95;218284;1260;139451;-70
2023/10/29 15:09:13;;;;;;;4.70;2.90;;;;;;;15.15;75.66;98741.36;218712;1259;140060;-69
2023/10/29 15:14:19;;;;;;;;;;;;;;;15.00;75.94;98734.35;217923;1260;139001;-71
2023/10/29 15:19:26;;;;;;;;;;;;;;;14.83;76.25;98725.88;218888;1260;125426;-71
2023/10/29 15:24:40;;;;;;;7.50;3.90;;;;;;;14.68;76.60;98709.27;219415;1261;125890;-71
2023/10/29 15:29:51;;;;;;;4.80;3.20;;;;;;;14.59;76.80;98706.63;217684;1259;139456;-70
2023/10/29 15:35:01;;;;;;;8.70;3.20;;;;;;;14.51;77.21;98713.73;218144;1262;140249;-73
2023/10/29 15:40:07;;;;;;;5.50;3.60;;;;;;;14.46;77.40;98716.84;217887;1259;139986;-72
2023/10/29 15:45:14;;;;;;;6.80;3.60;;;;;;;14.42;77.79;98730.54;217614;1262;139154;-70
2023/10/29 15:50:20;;;;;;;6.50;3.30;;;;;;;14.35;77.84;98723.10;217504;1259;139616;-72
2023/10/29 15:55:26;;;;;;;8.90;4.60;;;;;;;14.27;78.04;98726.73;218414;1259;139811;-71
2023/10/29 16:00:40;;;;;;;6.70;4.10;;;;;;;14.18;78.35;98725.20;217566;1260;139323;-69
2023/10/29 16:05:52;;;;;;;5.70;3.30;;;;;;;14.11;78.54;98720.58;217975;1262;140454;-72
2023/10/29 16:11:00;;;;;;;6.50;4.20;;;;;;;14.04;78.73;98728.55;218284;1263;140498;-72
2023/10/29 16:16:09;;;;;;;9.30;4.90;;;;;;;13.99;79.07;98734.27;218038;1259;139422;-69
2023/10/29 16:21:15;;;;;;;6.80;5.80;;;;;;;13.96;79.34;98733.81;217353;1259;139633;-70
2023/10/29 16:26:22;;;;;;;11.30;4.30;;;;;;;13.95;79.71;98737.41;217462;1259;138592;-70
2023/10/29 16:31:32;;;;;;;6.60;4.00;;;;;;;13.93;79.89;98739.57;217310;1264;139677;-72
2023/10/29 16:36:38;;;;;;;8.30;5.10;;;;;;;13.92;79.97;98735.56;217361;1259;139838;-74
2023/10/29 16:41:47;;;;;;;7.30;5.30;;;;;;;13.88;80.18;98739.08;218238;1260;140145;-71
2023/10/29 16:46:59;;;;;;;7.70;4.50;;;;;;;13.87;80.15;98735.54;217605;1259;150050;-70
2023/10/29 16:52:06;;;;;;;8.30;5.90;;;;;;;13.81;80.42;98730.02;218436;1261;138659;-72
2023/10/29 16:57:17;;;;;;;11.20;5.50;;;;;;;13.76;80.77;98732.95;217494;1262;139423;-70
2023/10/29 17:02:25;;;;;;;14.70;6.40;;;;;;;13.75;80.89;98732.48;219469;1260;141046;-72
2023/10/29 17:07:41;;;;;;;10.20;5.30;;;;;;;13.75;80.97;98712.88;217867;1263;140014;-73
2023/10/29 17:13:14;;;;;;;5.80;4.20;;;;;;;13.77;81.16;98699.56;219123;1261;223836;-75
2023/10/29 17:18:29;;;;;;;6.50;5.30;;;;;;;13.80;81.17;98686.73;218620;1262;139684;-76
2023/10/29 17:23:47;;;;;;;9.80;5.10;;;;;;;13.84;81.27;98685.09;218590;1260;140290;-72
2023/10/29 17:29:05;;;;;;;6.80;4.00;;;;;;;13.87;81.12;98681.38;217794;1259;140287;-71
2023/10/29 17:34:18;;;;;;;7.30;4.40;;;;;;;13.87;81.16;98676.71;217260;1262;140423;-72
2023/10/29 17:39:31;;;;;;;5.60;4.10;;;;;;;13.83;81.19;98678.95;217902;1264;139510;-71
2023/10/29 17:44:40;;;;;;;5.10;3.70;;;;;;;13.79;80.96;98692.95;217303;1260;139868;-69
2023/10/29 17:49:48;;;;;;;8.00;4.10;;;;;;;13.75;80.82;98705.80;217833;1259;141595;-69
2023/10/29 17:54:58;;;;;;;7.60;4.20;;;;;;;13.71;80.77;98725.40;217122;1261;139107;-71
2023/10/29 18:00:09;;;;;;;5.40;4.10;;;;;;;13.66;80.66;98734.10;218664;1260;140735;-69
2023/10/29 18:05:21;;;;;;;6.20;3.30;;;;;;;13.61;80.61;98741.84;217880;1257;140085;-70
2023/10/29 18:10:29;;;;;;;5.70;3.00;;;;;;;13.60;80.65;98756.74;217315;1262;140619;-69
2023/10/29 18:15:35;;;;;;;6.80;3.90;;;;;;;13.55;80.67;98754.73;217419;1258;139241;-70
2023/10/29 18:20:41;;;;;;;7.30;3.30;;;;;;;13.49;80.52;98756.15;217337;1259;139521;-68
2023/10/29 18:25:45;;;;;;;3.90;3.20;;;;;;;13.43;80.56;98766.64;217641;1262;139928;-71
2023/10/29 18:30:51;;;;;;;5.30;3.70;;;;;;;13.38;80.55;98779.11;217702;1262;141185;-70
2023/10/29 18:35:56;;;;;;;4.80;3.20;;;;;;;13.31;80.60;98781.65;217922;1261;139364;-69
2023/10/29 18:41:10;;;;;;;4.40;3.00;;;;;;;13.26;80.62;98776.53;218937;1259;139621;-69
2023/10/29 18:46:18;;;;;;;7.00;3.70;;;;;;;13.22;80.89;98778.95;218211;1260;139561;-70
2023/10/29 18:51:24;;;;;;;5.60;3.70;;;;;;;13.22;80.84;98771.73;217466;1260;139931;-73
2023/10/29 18:56:29;;;;;;;9.00;4.10;;;;;;;13.20;80.94;98754.35;218516;1259;140273;-72
2023/10/29 19:01:34;;;;;;;4.50;3.30;;;;;;;13.17;80.96;98753.12;218577;1259;140612;-72
2023/10/29 19:06:43;;;;;;;4.00;3.20;;;;;;;13.12;80.92;98746.71;217756;1260;140298;-76
2023/10/29 19:11:52;;;;;;;4.40;2.90;;;;;;;13.11;81.05;98752.51;218732;1260;140042;-73
2023/10/29 19:17:02;;;;;;;3.10;2.50;;;;;;;13.09;81.27;98745.07;218162;1257;139992;-72
2023/10/29 19:22:11;;;;;;;7.30;3.00;;;;;;;13.09;81.38;98740.48;217973;1263;139246;-72
2023/10/29 19:27:15;;;;;;;8.10;3.70;;;;;;;13.10;81.43;98734.10;217786;1261;139451;-71
2023/10/29 19:32:24;;;;;;;5.70;3.00;;;;;;;13.09;81.37;98740.25;218439;1261;139406;-72
2023/10/29 19:37:29;;;;;;;5.60;2.80;;;;;;;13.08;81.78;98746.30;217358;1259;139210;-69
2023/10/29 19:42:35;;;;;;;3.70;2.60;;;;;;;13.10;81.73;98751.54;217757;1259;140287;-70
2023/10/29 19:47:42;;;;;;;10.20;3.70;;;;;;;13.11;81.70;98747.69;218581;1259;140493;-70
2023/10/29 19:52:47;;;;;;;8.50;3.10;;;;;;;13.13;81.78;98747.57;217128;1261;140479;-70
2023/10/29 19:57:57;;;;;;;4.70;3.10;;;;;;;13.14;81.81;98764.59;217693;1261;141451;-69
2023/10/29 20:03:03;;;;;;;5.60;3.60;;;;;;;13.14;81.82;98774.91;217743;1262;141857;-71
2023/10/29 20:08:10;;;;;;;5.30;2.80;;;;;;;13.12;81.92;98779.36;218104;1261;141384;-69
2023/10/29 20:13:16;;;;;;;9.40;3.30;;;;;;;13.09;81.77;98780.33;218505;1261;141420;-70
2023/10/29 20:18:24;;;;;;;6.40;3.30;;;;;;;13.07;82.01;98772.47;218156;1259;140003;-71
2023/10/29 20:23:32;;;;;;;5.60;3.40;;;;;;;13.04;81.98;98769.23;217417;1259;139689;-69
2023/10/29 20:28:43;;;;;;;5.60;3.20;;;;;;;13.00;81.85;98777.95;217512;1261;139923;-69
2023/10/29 20:33:58;;;;;;;3.50;2.80;;;;;;;12.95;82.08;98779.09;218160;1259;140297;-72
2023/10/29 20:39:03;;;;;;;4.60;2.90;;;;;;;12.87;82.12;98771.73;218075;1260;139701;-70
2023/10/29 20:44:10;;;;;;;4.80;2.50;;;;;;;12.81;82.09;98764.33;217526;1262;139464;-71
2023/10/29 20:49:15;;;;;;;;;;;;;;;12.76;82.29;98761.03;218023;1259;139376;-70
2023/10/29 20:54:20;;;;;;;3.30;2.90;;;;;;;12.71;82.59;98754.79;218119;1262;126356;-70
2023/10/29 20:59:25;;;;;;;3.70;2.60;;;;;;;12.69;82.44;98749.88;217394;1261;139249;-69
2023/10/29 21:04:32;;;;;;;5.80;3.30;;;;;;;12.63;82.44;98748.87;217454;1262;140211;-69
2023/10/29 21:09:38;;;;;;;4.30;3.00;;;;;;;12.54;82.81;98742.38;218763;1262;140464;-73
2023/10/29 21:14:43;;;;;;;4.10;2.50;;;;;;;12.45;82.68;98746.14;217992;1260;141864;-70
2023/10/29 21:19:49;;;;;;;7.50;3.90;;;;;;;12.41;83.10;98756.15;217697;1262;139334;-70
2023/10/29 21:24:54;;;;;;;6.50;3.30;;;;;;;12.42;83.27;98768.02;218555;1263;141313;-69
2023/10/29 21:29:58;;;;;;;7.60;3.50;;;;;;;12.46;83.57;98772.34;217787;1263;139404;-72
2023/10/29 21:35:05;;;;;;;5.70;4.00;;;;;;;12.52;83.42;98760.09;218154;1260;246826;-71
2023/10/29 21:40:12;;;;;;;14.50;9.40;;;;;;;12.56;83.71;98765.25;217253;1263;219974;-69
2023/10/29 21:45:16;;;;;;;5.30;4.10;;;;;;;12.58;83.58;98779.41;217238;1263;139535;-72
2023/10/29 21:50:22;;;;;;;6.00;2.70;;;;;;;12.60;83.81;98778.60;217479;1262;140185;-73
2023/10/29 21:55:29;;;;;;;3.30;2.70;;;;;;;12.58;83.78;98776.63;217207;1262;140289;-73
2023/10/29 22:00:33;;;;;;;3.10;2.50;;;;;;;12.53;83.72;98773.92;218181;1262;140888;-72
2023/10/29 22:05:38;;;;;;;8.20;2.50;;;;;;;12.45;83.80;98771.33;217652;1263;140762;-73
2023/10/29 22:11:01;;;;;;;3.10;2.80;;;;;;;12.38;83.93;98773.52;218249;1263;139448;-73
2023/10/29 22:16:14;;;;;;;3.00;2.60;;;;;;;12.32;84.22;98769.94;217849;1262;139738;-72
2023/10/29 22:21:20;;;;;;;5.80;2.80;;;;;;;12.31;84.48;98768.61;217874;1263;140339;-72
2023/10/29 22:26:26;;;;;;;6.60;3.60;;;;;;;12.32;84.59;98757.11;218690;1262;139403;-73
2023/10/29 22:31:31;;;;;;;6.80;4.60;;;;;;;12.34;84.75;98747.71;218203;1261;139430;-72
2023/10/29 22:36:36;;;;;;;4.00;3.00;;;;;;;12.36;84.81;98730.98;217985;1259;139759;-75
2023/10/29 22:41:41;;;;;;;5.70;3.10;;;;;;;12.36;84.82;98711.30;218417;1260;139756;-72
2023/10/29 22:46:44;;;;;;;7.10;3.40;;;;;;;12.37;85.01;98706.28;218667;1256;140587;-73
2023/10/29 22:51:51;;;;;;;4.50;2.80;;;;;;;12.36;85.00;98697.52;218696;1260;139681;-72
2023/10/29 22:56:56;;;;;;;10.60;3.90;;;;;;;12.35;84.97;98703.02;218915;1257;139229;-72
2023/10/29 23:02:04;;;;;;;6.00;3.90;;;;;;;12.34;85.13;98720.02;219148;1257;141708;-73
2023/10/29 23:07:08;;;;;;;5.20;4.20;;;;;;;12.35;85.26;98720.23;218785;1258;142100;-72
2023/10/29 23:12:12;;;;;;;4.00;3.10;;;;;;;12.36;85.36;98732.58;218767;1257;141112;-72
2023/10/29 23:17:17;;;;;;;4.80;3.50;;;;;;;12.39;85.47;98745.30;218618;1260;139594;-72
2023/10/29 23:22:22;;;;;;;4.10;3.50;;;;;;;12.39;85.18;98740.44;218549;1257;139530;-75
2023/10/29 23:27:27;;;;;;;4.70;3.60;;;;;;;12.37;85.22;98751.55;218141;1256;141000;-72
2023/10/29 23:32:32;;;;;;;10.40;4.30;;;;;;;12.36;85.49;98749.15;218273;1258;140674;-70
2023/10/29 23:37:36;;;;;;;4.10;3.60;;;;;;;12.32;85.22;98738.56;219035;1257;139977;-74
2023/10/29 23:42:41;;;;;;;4.50;2.70;;;;;;;12.25;85.43;98717.80;218525;1257;139702;-73